Time;durP1;ratioP1;P1;durP2;ratioP2;P2;SDS_P1;SDS_P2;PMS_P1;PMS_P2;Temp;Humidity;BMP_temperature;BMP_pressure;BME280_temperature;BME280_humidity;BME280_pressure;Samples;Min_cycle;Max_cycle;Signal;HPM_P1;HPM_P2
2023/01/02 00:01:58;;;;;;;3.20;2.63;;;14.10;99.90;;;;;;5061207;28;20509;-73
2023/01/02 00:04:25;;;;;;;2.80;1.80;;;14.10;99.90;;;;;;5056910;28;20849;-73
2023/01/02 00:06:52;;;;;;;6.67;2.00;;;14.20;99.90;;;;;;5060080;28;20552;-73
2023/01/02 00:09:19;;;;;;;2.63;1.73;;;14.30;99.90;;;;;;5062145;28;20636;-73
2023/01/02 00:11:47;;;;;;;4.20;1.93;;;14.40;99.90;;;;;;5064090;28;20490;-73
2023/01/02 00:14:15;;;;;;;6.80;2.43;;;14.30;99.90;;;;;;5063383;28;20939;-73
2023/01/02 00:16:42;;;;;;;2.37;1.97;;;14.30;99.90;;;;;;5066563;28;20519;-73
2023/01/02 00:19:09;;;;;;;4.53;3.20;;;14.40;99.90;;;;;;5066161;28;20478;-73
2023/01/02 00:21:36;;;;;;;5.83;2.23;;;14.40;99.90;;;;;;5064374;28;20848;-73
2023/01/02 00:24:03;;;;;;;3.20;2.23;;;14.50;99.90;;;;;;5071774;28;20490;-73
2023/01/02 00:26:30;;;;;;;3.80;1.90;;;14.50;99.90;;;;;;5066448;28;20483;-73
2023/01/02 00:29:01;;;;;;;6.17;2.00;;;14.50;99.90;;;;;;5070919;28;20485;-73
2023/01/02 00:31:28;;;;;;;2.73;1.80;;;14.50;99.90;;;;;;5068321;28;20453;-74
2023/01/02 00:33:55;;;;;;;7.10;4.27;;;14.50;99.90;;;;;;5070814;28;20466;-74
2023/01/02 00:36:22;;;;;;;4.77;4.37;;;14.60;99.90;;;;;;5065219;28;20904;-74
2023/01/02 00:38:49;;;;;;;2.43;1.60;;;14.70;99.90;;;;;;5048842;28;20498;-74
2023/01/02 00:41:15;;;;;;;3.33;2.20;;;14.70;99.90;;;;;;5071962;28;20476;-74
2023/01/02 00:43:45;;;;;;;2.80;1.53;;;14.70;99.90;;;;;;5071975;28;20932;-74
2023/01/02 00:46:14;;;;;;;2.90;1.90;;;14.80;99.90;;;;;;5066538;28;20571;-74
2023/01/02 00:48:41;;;;;;;6.83;1.90;;;14.90;99.90;;;;;;5066499;28;20546;-73
2023/01/02 00:51:11;;;;;;;4.10;3.50;;;14.90;99.90;;;;;;5068236;28;20422;-74
2023/01/02 00:53:38;;;;;;;2.53;1.27;;;14.90;99.90;;;;;;5072165;28;20557;-74
2023/01/02 00:56:05;;;;;;;1.90;1.70;;;15.00;99.90;;;;;;5067312;28;20458;-74
2023/01/02 00:58:32;;;;;;;9.47;2.90;;;15.10;99.90;;;;;;5064954;28;20517;-73
2023/01/02 01:00:59;;;;;;;2.33;2.13;;;15.10;99.90;;;;;;5062542;28;20575;-73
2023/01/02 01:03:28;;;;;;;1.93;1.70;;;15.20;99.90;;;;;;5071595;28;20459;-73
2023/01/02 01:05:55;;;;;;;2.23;1.90;;;15.20;99.90;;;;;;5069961;28;20917;-74
2023/01/02 01:08:22;;;;;;;5.70;1.80;;;15.20;99.90;;;;;;5073165;28;20490;-74
2023/01/02 01:10:50;;;;;;;3.83;1.70;;;15.20;99.90;;;;;;5068708;28;20557;-74
2023/01/02 01:13:17;;;;;;;5.00;1.27;;;15.30;99.90;;;;;;5068788;28;20460;-74
2023/01/02 01:15:44;;;;;;;2.80;2.17;;;15.20;99.90;;;;;;5070625;28;20535;-74
2023/01/02 01:18:11;;;;;;;5.90;2.23;;;15.30;99.90;;;;;;5070166;28;20949;-74
2023/01/02 01:20:39;;;;;;;2.27;1.50;;;15.20;99.90;;;;;;5069630;28;20500;-74
2023/01/02 01:23:06;;;;;;;4.80;2.20;;;15.20;99.90;;;;;;5074311;28;20482;-74
2023/01/02 01:25:33;;;;;;;2.43;1.60;;;15.20;99.90;;;;;;5064751;28;20538;-74
2023/01/02 01:28:00;;;;;;;4.30;2.20;;;15.10;99.90;;;;;;5062307;28;20558;-74
2023/01/02 01:30:27;;;;;;;4.33;2.03;;;14.90;99.90;;;;;;5067511;28;20483;-74
2023/01/02 01:32:54;;;;;;;5.27;2.67;;;14.80;99.90;;;;;;5060827;28;20466;-74
2023/01/02 01:35:21;;;;;;;3.10;2.00;;;14.80;99.90;;;;;;5058708;28;20445;-72
2023/01/02 01:37:49;;;;;;;6.20;1.87;;;14.70;99.90;;;;;;5067703;28;20516;-73
2023/01/02 01:40:16;;;;;;;1.50;1.20;;;14.50;99.90;;;;;;5068471;28;20474;-73
2023/01/02 01:42:43;;;;;;;5.50;1.73;;;14.40;99.90;;;;;;5066666;28;21045;-73
2023/01/02 01:45:14;;;;;;;7.70;2.27;;;14.20;99.90;;;;;;5070684;28;20487;-72
2023/01/02 01:47:45;;;;;;;17.20;2.93;;;14.20;99.90;;;;;;5062947;28;20475;-73
2023/01/02 01:50:16;;;;;;;4.07;2.10;;;14.20;99.90;;;;;;5067087;28;20545;-73
2023/01/02 01:52:47;;;;;;;5.40;2.17;;;14.20;99.90;;;;;;5060921;28;20555;-72
2023/01/02 01:55:19;;;;;;;4.03;1.97;;;14.10;99.90;;;;;;5074847;28;20549;-73
2023/01/02 01:57:49;;;;;;;6.00;2.73;;;14.10;99.90;;;;;;5068741;28;20504;-73
2023/01/02 02:00:16;;;;;;;6.30;2.40;;;14.10;99.90;;;;;;5067408;28;20513;-72
2023/01/02 02:02:46;;;;;;;5.07;2.47;;;14.10;99.90;;;;;;5064802;28;20490;-73
2023/01/02 02:05:18;;;;;;;3.80;2.37;;;14.20;99.90;;;;;;5062438;28;20461;-73
2023/01/02 02:07:54;;;;;;;9.43;2.10;;;14.10;99.90;;;;;;5060079;28;20570;-73
2023/01/02 02:10:22;;;;;;;4.77;2.13;;;14.00;99.90;;;;;;5064471;28;20458;-72
2023/01/02 02:12:49;;;;;;;2.67;2.00;;;14.10;99.90;;;;;;5068378;28;20451;-72
2023/01/02 02:15:20;;;;;;;5.13;2.17;;;14.00;99.90;;;;;;5066536;28;20454;-73
2023/01/02 02:17:57;;;;;;;2.50;1.70;;;14.00;99.90;;;;;;5066988;28;20566;-72
2023/01/02 02:20:33;;;;;;;3.87;2.40;;;14.00;99.90;;;;;;5067223;28;20465;-73
2023/01/02 02:23:42;;;;;;;2.83;2.30;;;13.90;99.90;;;;;;5058687;28;20808;-73
2023/01/02 02:26:32;;;;;;;4.87;2.80;;;13.80;99.90;;;;;;5064040;28;20483;-73
2023/01/02 02:29:37;;;;;;;3.70;2.30;;;13.80;99.90;;;;;;5062232;28;20479;-72
2023/01/02 02:32:15;;;;;;;6.03;2.30;;;13.80;99.90;;;;;;5061762;28;20459;-72
2023/01/02 02:34:49;;;;;;;8.37;2.03;;;13.80;99.90;;;;;;5063386;28;20538;-73
2023/01/02 02:37:23;;;;;;;8.90;2.60;;;13.90;99.90;;;;;;5063172;28;20454;-73
2023/01/02 02:40:00;;;;;;;4.30;1.90;;;13.80;99.90;;;;;;5064450;28;20975;-73
2023/01/02 02:42:39;;;;;;;6.60;2.40;;;13.80;99.90;;;;;;5068193;28;20486;-73
2023/01/02 02:45:12;;;;;;;2.77;2.03;;;13.80;99.90;;;;;;5066567;28;20550;-73
2023/01/02 02:47:48;;;;;;;2.50;1.80;;;13.80;99.90;;;;;;5058976;28;20505;-73
2023/01/02 02:50:24;;;;;;;5.60;1.90;;;13.80;99.90;;;;;;5064721;28;20542;-73
2023/01/02 02:52:58;;;;;;;2.60;2.20;;;13.70;99.90;;;;;;5064493;28;20653;-73
2023/01/02 02:55:29;;;;;;;6.40;1.90;;;13.80;99.90;;;;;;5067794;28;20459;-72
2023/01/02 02:58:00;;;;;;;2.83;2.03;;;13.80;99.90;;;;;;5060507;28;20513;-73
2023/01/02 03:00:27;;;;;;;4.27;2.60;;;13.90;99.90;;;;;;5064287;28;20550;-73
2023/01/02 03:02:56;;;;;;;3.53;2.10;;;13.90;99.90;;;;;;5067300;28;20501;-73
2023/01/02 03:05:29;;;;;;;4.57;2.13;;;13.90;99.90;;;;;;5068186;28;20470;-73
2023/01/02 03:08:01;;;;;;;3.97;2.20;;;13.80;99.90;;;;;;5064418;28;21226;-74
2023/01/02 03:10:36;;;;;;;6.00;2.03;;;13.70;99.90;;;;;;5064218;28;20551;-74
2023/01/02 03:13:13;;;;;;;4.83;2.13;;;13.50;99.90;;;;;;5065346;28;20515;-74
2023/01/02 03:15:43;;;;;;;2.53;2.13;;;13.60;99.90;;;;;;5064401;28;20559;-74
2023/01/02 03:18:20;;;;;;;4.77;2.23;;;13.50;99.90;;;;;;5064998;28;21038;-74
2023/01/02 03:21:00;;;;;;;5.17;2.60;;;13.60;99.90;;;;;;5064077;28;20556;-73
2023/01/02 03:23:29;;;;;;;6.73;3.23;;;13.60;99.90;;;;;;5061310;28;20486;-74
2023/01/02 03:25:58;;;;;;;6.33;2.57;;;13.60;99.90;;;;;;5063573;28;20896;-74
2023/01/02 03:28:26;;;;;;;3.37;2.03;;;13.60;99.90;;;;;;5064799;28;20486;-73
2023/01/02 03:30:58;;;;;;;2.80;2.03;;;13.60;99.90;;;;;;5063905;28;20457;-74
2023/01/02 03:33:36;;;;;;;3.10;1.60;;;13.60;99.90;;;;;;5066718;28;20941;-74
2023/01/02 03:36:08;;;;;;;5.40;3.00;;;13.50;99.90;;;;;;5065774;28;20476;-72
2023/01/02 03:38:41;;;;;;;1.10;1.00;;;13.50;99.90;;;;;;5068118;28;20485;-74
2023/01/02 03:41:16;;;;;;;1.83;1.60;;;13.50;99.90;;;;;;5063446;28;20451;-73
2023/01/02 03:43:46;;;;;;;3.43;2.60;;;13.60;99.90;;;;;;5067462;28;20456;-73
2023/01/02 03:46:19;;;;;;;7.43;2.50;;;13.50;99.90;;;;;;5062822;28;20476;-73
2023/01/02 03:48:52;;;;;;;5.23;2.33;;;13.50;99.90;;;;;;5065886;28;20485;-73
2023/01/02 03:51:19;;;;;;;2.80;2.23;;;13.50;99.90;;;;;;5072711;28;20584;-73
2023/01/02 03:53:48;;;;;;;2.60;1.83;;;13.40;99.90;;;;;;5068463;28;20468;-73
2023/01/02 03:56:23;;;;;;;4.67;3.37;;;13.40;99.90;;;;;;5069987;28;20846;-73
2023/01/02 03:58:56;;;;;;;2.57;2.10;;;13.30;99.90;;;;;;5058254;28;20486;-72
2023/01/02 04:01:32;;;;;;;3.17;2.00;;;13.30;99.90;;;;;;5066332;28;20557;-73
2023/01/02 04:04:07;;;;;;;9.87;2.80;;;13.30;99.90;;;;;;5066795;28;20444;-73
2023/01/02 04:06:40;;;;;;;3.60;2.40;;;13.30;99.90;;;;;;5061976;28;20936;-73
2023/01/02 04:09:10;;;;;;;6.40;2.20;;;13.20;99.90;;;;;;5067232;28;20559;-73
2023/01/02 04:11:41;;;;;;;4.47;2.70;;;13.10;99.90;;;;;;5064471;28;20494;-73
2023/01/02 04:14:13;;;;;;;4.47;2.37;;;13.10;99.90;;;;;;5061588;28;20453;-73
2023/01/02 04:16:42;;;;;;;2.73;2.23;;;13.10;99.90;;;;;;5063224;28;21577;-73
2023/01/02 04:19:14;;;;;;;3.73;2.07;;;13.10;99.90;;;;;;5062327;28;20958;-73
2023/01/02 04:21:42;;;;;;;3.47;2.57;;;13.00;99.90;;;;;;5061082;28;20498;-73
2023/01/02 04:24:12;;;;;;;6.70;2.97;;;13.00;99.90;;;;;;5075119;28;20493;-73
2023/01/02 04:26:44;;;;;;;5.30;2.50;;;13.10;99.90;;;;;;5062014;28;20487;-73
2023/01/02 04:29:12;;;;;;;4.13;2.23;;;13.10;99.90;;;;;;5063356;28;20475;-73
2023/01/02 04:31:44;;;;;;;2.77;2.20;;;13.10;99.90;;;;;;5062955;28;20493;-73
2023/01/02 04:34:16;;;;;;;2.90;2.17;;;13.00;99.90;;;;;;5063797;28;20463;-73
2023/01/02 04:36:43;;;;;;;5.60;3.43;;;13.00;99.90;;;;;;5060612;28;20472;-73
2023/01/02 04:39:10;;;;;;;1.90;1.70;;;13.00;99.90;;;;;;5060841;28;20479;-73
2023/01/02 04:41:37;;;;;;;3.40;2.17;;;13.10;99.90;;;;;;5063688;28;20465;-73
2023/01/02 04:44:05;;;;;;;4.53;1.87;;;13.10;99.90;;;;;;5060486;28;20458;-73
2023/01/02 04:46:32;;;;;;;4.00;3.10;;;13.10;99.90;;;;;;5062571;28;20533;-73
2023/01/02 04:48:59;;;;;;;6.13;4.37;;;13.10;99.90;;;;;;5056794;28;20489;-73
2023/01/02 04:51:27;;;;;;;5.30;3.23;;;13.10;99.90;;;;;;5064243;28;20472;-73
2023/01/02 04:53:54;;;;;;;2.93;2.23;;;13.10;99.90;;;;;;5055994;28;20458;-73
2023/01/02 04:56:21;;;;;;;3.37;2.00;;;13.10;99.90;;;;;;5061288;28;20484;-73
2023/01/02 04:58:50;;;;;;;12.27;4.50;;;13.20;99.90;;;;;;5064469;28;20497;-73
2023/01/02 05:01:19;;;;;;;6.97;2.90;;;13.20;99.90;;;;;;5064716;28;20874;-73
2023/01/02 05:03:48;;;;;;;2.57;1.80;;;13.30;99.90;;;;;;5064954;28;20493;-73
2023/01/02 05:06:18;;;;;;;3.53;2.50;;;13.20;99.90;;;;;;5059756;28;20481;-73
2023/01/02 05:08:46;;;;;;;3.50;1.80;;;13.20;99.90;;;;;;5066460;28;20516;-73
2023/01/02 05:11:15;;;;;;;1.50;1.40;;;13.30;99.90;;;;;;5068492;28;20557;-74
2023/01/02 05:13:42;;;;;;;24.43;4.80;;;13.40;99.90;;;;;;5068359;28;20549;-73
2023/01/02 05:16:09;;;;;;;12.90;3.10;;;13.30;99.90;;;;;;5065255;28;20573;-73
2023/01/02 05:18:36;;;;;;;6.00;2.27;;;13.40;99.90;;;;;;5068724;28;20533;-73
2023/01/02 05:21:05;;;;;;;6.10;2.90;;;13.40;99.90;;;;;;5069755;28;20609;-73
2023/01/02 05:23:49;;;;;;;2.93;1.70;;;13.40;99.90;;;;;;5067974;28;20497;-73
2023/01/02 05:26:18;;;;;;;10.63;1.43;;;13.50;99.90;;;;;;5067519;28;20534;-74
2023/01/02 05:28:45;;;;;;;8.40;1.87;;;13.50;99.90;;;;;;5067162;28;20490;-73
2023/01/02 05:31:12;;;;;;;5.93;2.63;;;13.50;99.90;;;;;;5066261;28;20466;-73
2023/01/02 05:33:38;;;;;;;3.03;1.60;;;13.60;99.90;;;;;;5068345;28;20457;-73
2023/01/02 05:36:10;;;;;;;4.40;1.53;;;13.50;99.90;;;;;;5065721;28;20455;-73
2023/01/02 05:38:38;;;;;;;4.60;2.33;;;13.60;99.90;;;;;;5072198;28;20496;-73
2023/01/02 05:41:07;;;;;;;5.83;2.87;;;13.60;99.90;;;;;;5068601;28;21008;-73
2023/01/02 05:43:37;;;;;;;3.13;2.07;;;13.60;99.90;;;;;;5065939;28;20474;-73
2023/01/02 05:46:09;;;;;;;4.43;2.00;;;13.60;99.90;;;;;;5050889;28;20535;-73
2023/01/02 05:48:36;;;;;;;1.57;1.30;;;13.60;99.90;;;;;;5065196;28;20562;-73
2023/01/02 05:51:03;;;;;;;2.60;2.23;;;13.60;99.90;;;;;;5068114;28;20881;-73
2023/01/02 05:53:32;;;;;;;2.90;1.80;;;13.60;99.90;;;;;;5064270;28;20562;-73
2023/01/02 05:56:08;;;;;;;7.63;3.00;;;13.60;99.90;;;;;;5064199;28;20547;-73
2023/01/02 05:58:38;;;;;;;2.80;1.77;;;13.60;99.90;;;;;;5064681;28;20482;-73
2023/01/02 06:01:08;;;;;;;2.43;1.77;;;13.60;99.90;;;;;;5065587;28;20481;-73
2023/01/02 06:03:35;;;;;;;2.40;1.77;;;13.60;99.90;;;;;;5069930;28;20487;-73
2023/01/02 06:06:06;;;;;;;10.47;3.40;;;13.60;99.90;;;;;;5068964;28;20843;-73
2023/01/02 06:08:33;;;;;;;2.73;2.07;;;13.60;99.90;;;;;;5065749;28;20492;-73
2023/01/02 06:11:01;;;;;;;5.23;1.83;;;13.70;99.90;;;;;;5067022;28;20806;-73
2023/01/02 06:13:28;;;;;;;2.40;1.67;;;13.70;99.90;;;;;;5067577;28;20568;-74
2023/01/02 06:15:57;;;;;;;2.77;1.70;;;13.70;99.90;;;;;;5064211;28;20633;-74
2023/01/02 06:18:24;;;;;;;4.50;1.20;;;13.80;99.90;;;;;;5065646;28;20513;-73
2023/01/02 06:20:53;;;;;;;4.80;2.03;;;13.80;99.90;;;;;;5070964;28;20470;-72
2023/01/02 06:23:19;;;;;;;3.43;1.87;;;13.70;99.90;;;;;;5068241;28;20584;-74
2023/01/02 06:25:46;;;;;;;3.30;2.00;;;13.60;99.90;;;;;;5063143;28;20466;-74
2023/01/02 06:28:13;;;;;;;2.13;1.60;;;13.60;99.90;;;;;;5068099;28;20506;-74
2023/01/02 06:30:40;;;;;;;3.10;1.60;;;13.50;99.90;;;;;;5066855;28;20891;-74
2023/01/02 06:33:08;;;;;;;2.87;1.60;;;13.50;99.90;;;;;;5064581;28;20825;-73
2023/01/02 06:35:35;;;;;;;1.87;1.77;;;13.50;99.90;;;;;;5066970;28;20458;-73
2023/01/02 06:38:02;;;;;;;2.73;1.37;;;13.50;99.90;;;;;;5064208;28;20899;-72
2023/01/02 06:40:29;;;;;;;1.53;1.30;;;13.40;99.90;;;;;;5061100;28;20612;-72
2023/01/02 06:42:56;;;;;;;2.70;1.97;;;13.50;99.90;;;;;;5069800;28;20479;-72
2023/01/02 06:45:23;;;;;;;2.80;2.20;;;13.50;99.90;;;;;;5060177;28;20521;-73
2023/01/02 06:47:56;;;;;;;5.93;2.27;;;13.60;99.90;;;;;;5066271;28;20568;-73
2023/01/02 06:50:24;;;;;;;2.87;1.70;;;13.60;99.90;;;;;;5074575;28;20462;-74
2023/01/02 06:52:52;;;;;;;1.87;1.30;;;13.60;99.90;;;;;;5068499;28;20504;-75
2023/01/02 06:55:18;;;;;;;1.97;1.57;;;13.60;99.90;;;;;;5063733;28;20840;-73
2023/01/02 06:57:45;;;;;;;2.03;1.57;;;13.60;99.90;;;;;;5068196;28;20497;-73
2023/01/02 07:00:13;;;;;;;2.33;1.63;;;13.60;99.90;;;;;;5062155;28;20465;-73
2023/01/02 07:02:40;;;;;;;2.30;1.70;;;13.50;99.90;;;;;;5067320;28;20491;-73
2023/01/02 07:05:09;;;;;;;6.20;2.00;;;13.50;99.90;;;;;;5068538;28;20544;-74
2023/01/02 07:07:38;;;;;;;1.30;1.20;;;13.50;99.90;;;;;;5067829;28;20485;-74
2023/01/02 07:10:05;;;;;;;2.83;1.80;;;13.50;99.90;;;;;;5058878;28;20892;-74
2023/01/02 07:12:34;;;;;;;1.50;1.40;;;13.40;99.90;;;;;;5064254;28;20460;-74
2023/01/02 07:15:02;;;;;;;9.07;1.80;;;13.40;99.90;;;;;;5068747;28;20570;-74
2023/01/02 07:17:28;;;;;;;1.40;1.30;;;13.30;99.90;;;;;;5058023;28;20511;-74
2023/01/02 07:19:55;;;;;;;3.93;2.13;;;13.30;99.90;;;;;;5063224;28;20468;-74
2023/01/02 07:22:22;;;;;;;7.03;2.20;;;13.30;99.90;;;;;;5059471;28;20437;-74
2023/01/02 07:24:51;;;;;;;2.07;1.20;;;13.30;99.90;;;;;;5062857;28;20474;-74
2023/01/02 07:27:18;;;;;;;3.83;1.57;;;13.30;99.90;;;;;;5059640;28;20493;-73
2023/01/02 07:29:45;;;;;;;1.60;1.20;;;13.30;99.90;;;;;;5055430;28;20476;-71
2023/01/02 07:32:12;;;;;;;1.67;1.33;;;13.20;99.90;;;;;;5061945;28;20876;-73
2023/01/02 07:34:39;;;;;;;3.27;2.13;;;13.20;99.90;;;;;;5064953;28;20454;-74
2023/01/02 07:37:06;;;;;;;2.53;1.40;;;13.30;99.90;;;;;;5063191;28;20477;-74
2023/01/02 07:39:33;;;;;;;1.77;1.37;;;13.30;99.90;;;;;;5069077;28;20548;-74
2023/01/02 07:42:03;;;;;;;3.00;1.60;;;13.30;99.90;;;;;;5066981;28;20833;-74
2023/01/02 07:44:29;;;;;;;7.30;1.57;;;13.20;99.90;;;;;;5064495;28;20479;-73
2023/01/02 07:46:56;;;;;;;2.53;1.30;;;13.30;99.90;;;;;;5065053;28;20469;-74
2023/01/02 07:49:23;;;;;;;5.53;1.87;;;13.30;99.90;;;;;;5067323;28;20482;-74
2023/01/02 07:51:50;;;;;;;3.63;1.30;;;13.40;99.90;;;;;;5067931;28;20574;-74
2023/01/02 07:54:17;;;;;;;3.50;1.30;;;13.30;99.90;;;;;;5066141;28;20462;-74
2023/01/02 07:56:44;;;;;;;1.87;1.60;;;13.30;99.90;;;;;;5060953;28;20461;-73
2023/01/02 07:59:12;;;;;;;3.13;2.17;;;13.30;99.90;;;;;;5063930;28;20566;-74
2023/01/02 08:01:39;;;;;;;1.50;1.30;;;13.30;99.90;;;;;;5061333;28;20465;-74
2023/01/02 08:04:06;;;;;;;2.37;1.90;;;13.30;99.90;;;;;;5064687;28;20461;-74
2023/01/02 08:06:33;;;;;;;1.77;1.67;;;13.30;99.90;;;;;;5063797;28;20826;-74
2023/01/02 08:09:00;;;;;;;1.57;1.20;;;13.30;99.90;;;;;;5065433;28;20509;-73
2023/01/02 08:11:27;;;;;;;2.13;1.47;;;13.30;99.90;;;;;;5059653;28;20893;-73
2023/01/02 08:13:55;;;;;;;2.40;1.70;;;13.20;99.90;;;;;;5056802;28;20457;-73
2023/01/02 08:16:23;;;;;;;1.60;1.20;;;13.20;99.90;;;;;;5067613;28;20514;-73
2023/01/02 08:18:54;;;;;;;2.33;1.10;;;13.30;99.90;;;;;;5061763;28;20508;-73
2023/01/02 08:21:21;;;;;;;1.27;1.17;;;13.20;99.90;;;;;;5066799;28;20978;-73
2023/01/02 08:23:48;;;;;;;4.03;1.80;;;13.20;99.90;;;;;;5067481;28;20478;-73
2023/01/02 08:26:15;;;;;;;2.80;1.67;;;13.10;99.90;;;;;;5063424;28;20465;-73
2023/01/02 08:28:42;;;;;;;2.00;1.80;;;13.20;99.90;;;;;;5067598;28;20532;-73
2023/01/02 08:31:11;;;;;;;2.20;1.97;;;13.10;99.90;;;;;;5065299;28;20696;-73
2023/01/02 08:33:40;;;;;;;2.17;1.53;;;13.10;99.90;;;;;;5064783;28;20533;-73
2023/01/02 08:36:07;;;;;;;5.43;2.27;;;13.20;99.90;;;;;;5062622;28;20996;-73
2023/01/02 08:38:35;;;;;;;8.13;1.97;;;13.20;99.90;;;;;;5067697;28;20474;-73
2023/01/02 08:41:02;;;;;;;1.70;1.10;;;13.10;99.90;;;;;;5082075;28;20456;-73
2023/01/02 08:43:29;;;;;;;4.53;1.90;;;13.10;99.90;;;;;;5071990;28;20481;-73
2023/01/02 08:45:56;;;;;;;1.50;1.20;;;13.00;99.90;;;;;;5071563;28;20455;-73
2023/01/02 08:48:23;;;;;;;1.33;1.23;;;13.00;99.90;;;;;;5068795;28;20443;-73
2023/01/02 08:50:51;;;;;;;1.20;1.10;;;13.00;99.90;;;;;;5070189;28;20490;-73
2023/01/02 08:53:18;;;;;;;1.67;1.10;;;12.90;99.90;;;;;;5071050;28;20541;-73
2023/01/02 08:55:45;;;;;;;1.37;1.23;;;13.00;99.90;;;;;;5071052;28;20533;-73
2023/01/02 08:58:13;;;;;;;1.90;1.13;;;12.90;99.90;;;;;;5062321;28;20493;-73
2023/01/02 09:00:39;;;;;;;2.23;1.80;;;12.90;99.90;;;;;;5066425;28;20969;-73
2023/01/02 09:03:06;;;;;;;4.43;2.90;;;12.90;99.90;;;;;;5069116;28;20482;-73
2023/01/02 09:05:33;;;;;;;10.33;2.00;;;12.90;99.90;;;;;;5077238;28;20450;-73
2023/01/02 09:08:02;;;;;;;1.63;1.33;;;12.70;99.90;;;;;;5070682;28;20569;-73
2023/01/02 09:10:29;;;;;;;2.63;2.10;;;12.70;99.90;;;;;;5067880;28;20462;-73
2023/01/02 09:12:57;;;;;;;1.70;1.50;;;12.60;99.90;;;;;;5063801;28;20552;-73
2023/01/02 09:15:24;;;;;;;2.37;1.90;;;12.50;99.90;;;;;;5065353;28;20858;-73
2023/01/02 09:17:51;;;;;;;5.50;1.87;;;12.40;99.90;;;;;;5064776;28;20534;-73
2023/01/02 09:20:18;;;;;;;7.60;1.40;;;12.40;99.90;;;;;;5058319;28;20947;-73
2023/01/02 09:22:45;;;;;;;1.77;1.60;;;12.30;99.90;;;;;;5029684;28;20518;-73
2023/01/02 09:25:14;;;;;;;1.77;1.53;;;12.30;99.90;;;;;;5063827;28;20482;-73
2023/01/02 09:27:41;;;;;;;2.70;1.60;;;12.20;99.90;;;;;;5064888;28;20630;-73
2023/01/02 09:30:09;;;;;;;3.53;1.70;;;12.20;99.90;;;;;;5066745;28;21022;-72
2023/01/02 09:32:36;;;;;;;1.90;1.67;;;12.20;99.90;;;;;;5060735;28;20460;-72
2023/01/02 09:35:03;;;;;;;1.83;1.10;;;12.20;99.90;;;;;;5055147;28;20884;-72
2023/01/02 09:37:30;;;;;;;1.97;1.13;;;12.00;99.90;;;;;;5062838;28;20481;-73
2023/01/02 09:39:57;;;;;;;1.97;1.40;;;11.90;99.90;;;;;;5063431;28;20498;-73
2023/01/02 09:42:25;;;;;;;2.03;1.00;;;11.80;99.90;;;;;;5044967;28;20454;-73
2023/01/02 09:44:54;;;;;;;1.10;0.87;;;11.80;99.90;;;;;;5070694;28;20486;-73
2023/01/02 09:47:23;;;;;;;1.13;0.90;;;11.80;99.90;;;;;;5058197;28;20580;-73
2023/01/02 09:49:53;;;;;;;1.17;0.90;;;11.70;99.90;;;;;;5064924;28;20539;-73
2023/01/02 09:52:23;;;;;;;1.10;0.90;;;11.70;99.90;;;;;;5062339;28;20537;-73
2023/01/02 09:54:51;;;;;;;3.83;1.30;;;11.80;99.90;;;;;;5058396;28;20469;-73
2023/01/02 09:57:33;;;;;;;1.83;1.10;;;11.90;99.90;;;;;;5065346;28;21154;-73
2023/01/02 10:00:08;;;;;;;1.43;1.00;;;11.90;99.90;;;;;;5062156;28;20550;-73
2023/01/02 10:02:51;;;;;;;1.10;0.90;;;11.90;99.90;;;;;;5068183;28;20465;-73
2023/01/02 10:05:48;;;;;;;2.13;1.37;;;11.80;99.90;;;;;;5064279;28;20572;-72
2023/01/02 10:08:27;;;;;;;1.50;1.13;;;11.70;99.90;;;;;;5058509;28;20489;-73
2023/01/02 10:11:02;;;;;;;1.30;1.00;;;11.70;99.90;;;;;;5070535;28;20462;-73
2023/01/02 10:13:37;;;;;;;1.20;1.10;;;11.70;99.90;;;;;;5069745;28;20519;-73
2023/01/02 10:16:06;;;;;;;1.37;1.03;;;11.80;99.90;;;;;;5066720;28;20567;-72
2023/01/02 10:18:38;;;;;;;1.20;0.90;;;11.90;99.90;;;;;;5055654;28;20488;-72
2023/01/02 10:21:09;;;;;;;1.90;1.40;;;11.90;99.90;;;;;;5055522;28;20486;-73
2023/01/02 10:23:44;;;;;;;4.20;1.40;;;11.90;99.90;;;;;;5062116;28;20602;-73
2023/01/02 10:26:17;;;;;;;1.63;1.23;;;11.90;99.90;;;;;;5063285;28;20465;-74
2023/01/02 10:28:52;;;;;;;1.20;1.00;;;11.90;99.90;;;;;;5060002;28;20614;-72
2023/01/02 10:31:24;;;;;;;1.30;1.20;;;11.90;99.90;;;;;;5066059;28;20525;-73
2023/01/02 10:33:57;;;;;;;1.63;1.00;;;12.00;99.90;;;;;;5061465;28;21043;-72
2023/01/02 10:36:26;;;;;;;2.87;1.13;;;12.00;99.90;;;;;;5062858;28;20465;-74
2023/01/02 10:38:56;;;;;;;1.60;1.10;;;11.90;99.90;;;;;;5060464;28;20492;-74
2023/01/02 10:41:24;;;;;;;3.10;2.80;;;12.00;99.90;;;;;;5065127;28;20463;-73
2023/01/02 10:43:56;;;;;;;1.67;1.27;;;11.80;99.90;;;;;;5072416;28;20555;-74
2023/01/02 10:46:23;;;;;;;4.40;1.20;;;11.80;99.90;;;;;;5064606;28;20516;-74
2023/01/02 10:48:50;;;;;;;1.77;1.30;;;11.90;99.90;;;;;;5058316;28;20578;-74
2023/01/02 10:51:18;;;;;;;2.60;2.00;;;11.80;99.90;;;;;;5058312;28;20623;-74
2023/01/02 10:54:03;;;;;;;1.60;1.43;;;11.70;99.90;;;;;;5062873;28;20555;-74
2023/01/02 10:56:33;;;;;;;2.20;1.80;;;11.70;99.90;;;;;;5058716;28;21026;-73
2023/01/02 10:59:01;;;;;;;2.87;2.50;;;11.70;99.90;;;;;;5064834;28;20498;-74
2023/01/02 11:01:29;;;;;;;2.00;1.53;;;11.80;99.90;;;;;;5058160;28;20440;-74
2023/01/02 11:04:20;;;;;;;4.13;2.70;;;11.70;99.90;;;;;;5071076;28;20459;-74
2023/01/02 11:06:52;;;;;;;2.83;2.23;;;11.90;99.90;;;;;;5066588;28;20587;-74
2023/01/02 11:09:21;;;;;;;5.37;2.50;;;12.00;99.90;;;;;;5059735;28;20964;-73
2023/01/02 11:11:51;;;;;;;3.60;2.20;;;11.90;99.90;;;;;;5031666;28;20457;-73
2023/01/02 11:14:22;;;;;;;3.37;2.30;;;11.80;99.90;;;;;;5060460;28;20461;-74
2023/01/02 11:16:50;;;;;;;4.73;2.83;;;11.80;99.90;;;;;;5069014;28;20548;-74
2023/01/02 11:19:22;;;;;;;4.40;2.40;;;11.90;99.90;;;;;;5064424;28;21021;-74
2023/01/02 11:21:52;;;;;;;3.80;2.67;;;11.90;99.90;;;;;;5063940;28;20484;-74
2023/01/02 11:24:24;;;;;;;4.43;3.20;;;12.00;99.90;;;;;;5063566;28;20515;-74
2023/01/02 11:26:52;;;;;;;7.13;3.50;;;12.20;99.90;;;;;;5066082;28;20557;-73
2023/01/02 11:29:26;;;;;;;5.57;3.63;;;12.30;99.90;;;;;;5061441;28;20548;-73
2023/01/02 11:31:56;;;;;;;5.13;3.60;;;12.10;99.90;;;;;;5065604;28;20453;-74
2023/01/02 11:34:24;;;;;;;5.53;3.70;;;12.10;99.90;;;;;;5061493;28;20516;-74
2023/01/02 11:37:06;;;;;;;4.47;3.50;;;12.20;99.90;;;;;;5059665;28;20462;-74
2023/01/02 11:39:35;;;;;;;4.30;2.73;;;12.10;99.90;;;;;;5061054;28;20592;-74
2023/01/02 11:45:07;;;;;;;5.00;3.00;;;11.90;99.90;;;;;;5060446;28;20481;-72
2023/01/02 11:47:38;;;;;;;6.07;3.73;;;11.90;99.90;;;;;;5065850;28;20492;-72
2023/01/02 11:50:06;;;;;;;4.87;3.50;;;11.90;99.90;;;;;;5068250;28;20476;-73
2023/01/02 11:52:43;;;;;;;3.90;2.33;;;11.90;99.90;;;;;;5057421;28;20559;-73
2023/01/02 11:55:25;;;;;;;7.03;3.03;;;11.70;99.90;;;;;;5060876;28;20889;-73
2023/01/02 11:57:57;;;;;;;4.50;3.50;;;11.60;99.90;;;;;;5056374;28;20480;-74
2023/01/02 12:00:34;;;;;;;6.73;4.00;;;11.60;99.90;;;;;;5057128;28;20461;-72
2023/01/02 12:03:05;;;;;;;5.03;4.30;;;11.60;99.90;;;;;;5063265;28;20456;-73
2023/01/02 12:05:38;;;;;;;7.80;3.90;;;11.40;99.90;;;;;;5052947;28;20487;-72
2023/01/02 12:08:15;;;;;;;4.40;2.13;;;11.50;99.90;;;;;;5039822;28;20457;-73
2023/01/02 12:10:53;;;;;;;4.10;2.47;;;11.50;99.90;;;;;;5056965;28;20436;-73
2023/01/02 12:13:42;;;;;;;4.43;2.50;;;11.40;99.90;;;;;;5061416;28;20458;-72
2023/01/02 12:16:23;;;;;;;2.43;2.17;;;11.50;99.90;;;;;;5061737;28;20460;-72
2023/01/02 12:19:10;;;;;;;4.77;2.47;;;11.50;99.90;;;;;;5070536;28;20464;-73
2023/01/02 12:21:44;;;;;;;3.80;2.40;;;11.40;99.90;;;;;;5070973;28;20458;-73
2023/01/02 12:24:44;;;;;;;3.77;2.10;;;11.40;99.90;;;;;;5072442;28;20553;-73
2023/01/02 12:27:19;;;;;;;2.53;1.87;;;11.60;99.90;;;;;;5065251;28;20505;-72
2023/01/02 12:30:02;;;;;;;6.50;2.30;;;11.70;99.90;;;;;;5064577;28;20468;-72
2023/01/02 12:32:57;;;;;;;3.20;1.90;;;11.60;99.90;;;;;;5060647;28;20873;-72
2023/01/02 12:35:54;;;;;;;6.37;5.27;;;11.60;99.90;;;;;;5063224;28;20826;-73
2023/01/02 12:38:34;;;;;;;5.67;2.87;;;11.60;99.90;;;;;;5068076;28;20971;-73
2023/01/02 12:41:18;;;;;;;4.93;3.93;;;11.80;99.90;;;;;;5063863;28;20463;-72
2023/01/02 12:44:05;;;;;;;5.70;3.40;;;11.90;99.90;;;;;;5096333;28;20484;-72
2023/01/02 12:46:53;;;;;;;6.43;3.93;;;11.80;99.90;;;;;;5064130;28;20544;-73
2023/01/02 12:49:37;;;;;;;3.73;2.80;;;11.90;99.90;;;;;;5061523;28;20433;-73
2023/01/02 12:52:13;;;;;;;4.63;3.00;;;12.00;99.90;;;;;;5066568;28;20543;-73
2023/01/02 12:54:51;;;;;;;9.57;4.93;;;12.00;99.90;;;;;;5065890;28;20475;-73
2023/01/02 12:57:28;;;;;;;7.20;3.47;;;12.00;99.90;;;;;;5065973;28;20485;-73
2023/01/02 13:00:29;;;;;;;5.50;3.40;;;11.90;99.90;;;;;;5067341;28;20458;-73
2023/01/02 13:03:21;;;;;;;4.43;2.60;;;11.90;99.90;;;;;;5058942;28;20458;-72
2023/01/02 13:05:55;;;;;;;7.00;3.77;;;11.70;99.90;;;;;;5025490;28;21163;-73
2023/01/02 13:08:32;;;;;;;4.80;3.00;;;11.70;99.90;;;;;;5067720;28;20483;-73